createdAt,value
2022-08-22T00:00:24.986Z,97.000000
2022-08-22T00:02:43.622Z,97.000000
2022-08-22T00:02:53.141Z,97.000000
2022-08-22T00:03:12.735Z,98.000000
2022-08-22T00:05:24.929Z,97.000000
2022-08-22T00:10:25.922Z,97.000000
2022-08-22T00:15:42.485Z,97.000000
2022-08-22T00:20:28.209Z,97.000000
2022-08-22T00:25:26.172Z,97.000000
2022-08-22T00:30:25.003Z,97.000000
2022-08-22T00:35:24.945Z,97.000000
2022-08-22T00:40:24.933Z,97.000000
2022-08-22T00:45:25.023Z,97.200000
2022-08-22T00:50:25.021Z,97.500000
2022-08-22T00:55:36.960Z,98.000000
2022-08-22T01:00:25.002Z,98.000000
2022-08-22T01:05:24.999Z,98.000000
2022-08-22T01:10:25.009Z,98.000000
2022-08-22T01:15:25.016Z,98.000000
2022-08-22T01:20:25.028Z,98.000000
2022-08-22T01:25:26.082Z,98.000000
2022-08-22T01:30:24.891Z,98.000000
2022-08-22T01:35:49.008Z,98.000000
2022-08-22T01:40:24.971Z,98.000000
2022-08-22T01:45:25.300Z,98.000000
2022-08-22T01:50:25.070Z,98.000000
2022-08-22T01:55:25.021Z,98.000000
2022-08-22T02:00:34.828Z,98.000000
2022-08-22T02:05:25.114Z,98.000000
2022-08-22T02:10:25.202Z,98.000000
2022-08-22T02:15:24.984Z,98.000000
2022-08-22T02:20:37.407Z,98.000000
2022-08-22T02:25:25.166Z,98.000000
2022-08-22T02:30:25.002Z,98.000000
2022-08-22T02:35:36.948Z,98.000000
2022-08-22T02:40:25.059Z,98.000000
2022-08-22T02:45:37.025Z,98.000000
2022-08-22T02:50:25.009Z,98.000000
2022-08-22T02:55:37.095Z,98.000000
2022-08-22T03:01:01.047Z,98.000000
2022-08-22T03:05:25.110Z,98.000000
2022-08-22T03:10:25.281Z,98.200000
2022-08-22T03:15:25.019Z,98.625000
2022-08-22T03:20:49.083Z,99.000000
2022-08-22T03:25:25.088Z,99.000000
2022-08-22T03:30:25.105Z,99.000000
2022-08-22T03:35:25.084Z,99.000000
2022-08-22T03:40:31.509Z,99.000000
2022-08-22T03:45:25.182Z,99.000000
2022-08-22T03:50:25.134Z,99.000000
2022-08-22T03:55:25.781Z,99.000000
2022-08-22T04:00:37.154Z,99.000000
2022-08-22T04:05:25.337Z,99.000000
2022-08-22T04:10:25.130Z,98.363636
2022-08-22T04:15:25.108Z,98.000000
2022-08-22T04:20:25.152Z,98.000000
2022-08-22T04:25:25.070Z,98.000000
2022-08-22T04:30:25.013Z,97.250000
2022-08-22T04:35:25.185Z,97.000000
2022-08-22T04:40:25.242Z,96.250000
2022-08-22T04:45:25.615Z,96.000000
2022-08-22T04:50:25.208Z,95.363636
2022-08-22T04:55:37.962Z,95.000000
2022-08-22T05:00:25.204Z,95.000000
2022-08-22T05:05:25.284Z,95.000000
2022-08-22T05:10:25.173Z,94.363636
2022-08-22T05:15:25.128Z,94.000000
2022-08-22T05:20:25.177Z,94.454545
2022-08-22T05:25:25.428Z,94.000000
2022-08-22T05:30:25.591Z,94.000000
2022-08-22T05:35:25.262Z,94.000000
2022-08-22T05:40:25.279Z,94.384615
2022-08-22T05:45:25.347Z,94.181818
2022-08-22T05:50:25.241Z,95.000000
2022-08-22T05:55:25.210Z,94.888889
2022-08-22T06:00:25.209Z,93.363636
2022-08-22T06:05:25.245Z,92.750000
2022-08-22T06:10:25.235Z,92.000000
2022-08-22T06:15:25.198Z,91.272727
2022-08-22T06:20:25.865Z,91.833333
2022-08-22T06:25:25.204Z,91.000000
2022-08-22T06:30:25.296Z,90.000000
2022-08-22T06:35:37.263Z,90.111111
2022-08-22T06:40:25.362Z,89.272727
2022-08-22T06:45:25.353Z,90.000000
2022-08-22T06:50:25.225Z,89.769231
2022-08-22T06:55:25.301Z,88.000000
2022-08-22T07:00:25.306Z,86.750000
2022-08-22T07:05:25.323Z,86.454545
2022-08-22T07:10:26.058Z,85.846154
2022-08-22T07:15:25.565Z,83.181818
2022-08-22T07:20:37.290Z,82.538462
2022-08-22T07:25:25.267Z,81.000000
2022-08-22T07:30:28.066Z,82.200000
2022-08-22T07:35:25.570Z,78.666667
2022-08-22T07:40:37.420Z,78.500000
2022-08-22T07:45:25.531Z,76.500000
2022-08-22T07:50:25.407Z,74.750000
2022-08-22T07:55:25.402Z,74.454545
2022-08-22T08:00:25.461Z,72.857143
2022-08-22T08:05:49.362Z,72.666667
2022-08-22T08:10:25.308Z,73.000000
2022-08-22T08:15:25.471Z,72.000000
2022-08-22T08:20:27.036Z,69.600000
2022-08-22T08:25:25.363Z,68.818182
2022-08-22T08:30:25.564Z,71.000000
2022-08-22T08:35:25.623Z,71.545455
2022-08-22T08:40:25.580Z,72.100000
2022-08-22T08:45:25.348Z,71.000000
2022-08-22T08:50:37.477Z,68.750000
2022-08-22T08:55:25.358Z,68.500000
2022-08-22T09:00:29.192Z,66.000000
2022-08-22T09:05:25.593Z,68.500000
2022-08-22T09:10:27.348Z,73.090909
2022-08-22T09:15:25.419Z,77.181818
2022-08-22T09:20:25.671Z,78.333333
2022-08-22T09:25:27.902Z,79.400000
2022-08-22T09:30:28.859Z,78.666667
2022-08-22T09:35:25.474Z,77.700000
2022-08-22T09:40:30.834Z,81.307692
2022-08-22T09:45:25.555Z,84.083333
2022-08-22T09:50:25.543Z,83.000000
2022-08-22T09:55:34.951Z,82.363636
2022-08-22T10:00:25.838Z,82.000000
2022-08-22T10:05:41.062Z,82.200000
2022-08-22T10:10:26.341Z,81.727273
2022-08-22T10:15:25.527Z,79.111111
2022-08-22T10:20:25.475Z,78.700000
2022-08-22T10:25:25.530Z,79.333333
2022-08-22T10:30:25.580Z,79.153846
2022-08-22T10:35:25.716Z,79.444444
2022-08-22T10:40:25.745Z,80.400000
2022-08-22T10:45:35.734Z,79.888889
2022-08-22T10:50:31.074Z,77.363636
2022-08-22T10:55:25.579Z,75.300000
2022-08-22T11:00:25.743Z,73.727273
2022-08-22T11:05:25.499Z,74.636364
2022-08-22T11:10:25.558Z,78.875000
2022-08-22T11:15:34.685Z,80.000000
2022-08-22T11:20:25.535Z,81.000000
2022-08-22T11:25:35.719Z,79.750000
2022-08-22T11:30:25.924Z,79.500000
2022-08-22T11:35:25.913Z,80.000000
2022-08-22T11:40:25.756Z,80.000000
2022-08-22T11:45:25.657Z,79.750000
2022-08-22T11:50:38.797Z,80.875000
2022-08-22T11:55:37.539Z,81.125000
2022-08-22T12:00:25.575Z,81.636364
2022-08-22T12:05:37.717Z,81.500000
2022-08-22T12:10:25.580Z,80.666667
2022-08-22T12:15:25.707Z,79.500000
2022-08-22T12:20:25.612Z,80.909091
2022-08-22T12:25:25.783Z,82.250000
2022-08-22T12:30:25.847Z,80.083333
2022-08-22T12:35:29.674Z,81.300000
2022-08-22T12:40:26.340Z,80.916667
2022-08-22T12:45:25.562Z,83.000000
2022-08-22T12:50:25.575Z,83.153846
2022-08-22T12:55:25.523Z,83.916667
2022-08-22T13:00:27.000Z,83.090909
2022-08-22T13:05:25.564Z,84.833333
2022-08-22T13:10:25.583Z,84.363636
2022-08-22T13:15:25.620Z,84.090909
2022-08-22T13:20:26.606Z,84.090909
2022-08-22T13:25:26.622Z,84.090909
2022-08-22T13:30:25.737Z,84.666667
2022-08-22T13:35:25.694Z,82.583333
2022-08-22T13:40:25.967Z,82.454545
2022-08-22T13:45:37.652Z,82.636364
2022-08-22T13:50:25.661Z,83.384615
2022-08-22T13:55:29.405Z,84.000000
2022-08-22T14:00:29.001Z,83.769231
2022-08-22T14:05:26.893Z,83.363636
2022-08-22T14:10:25.660Z,83.888889
2022-08-22T14:15:25.593Z,83.555556
2022-08-22T14:20:50.056Z,83.250000
2022-08-22T14:25:25.665Z,83.545455
2022-08-22T14:30:25.723Z,83.692308
2022-08-22T14:35:35.382Z,84.300000
2022-08-22T14:40:26.096Z,83.333333
2022-08-22T14:45:25.705Z,84.545455
2022-08-22T14:50:49.751Z,85.166667
2022-08-22T14:55:25.737Z,85.363636
2022-08-22T15:00:25.920Z,85.666667
2022-08-22T15:05:25.901Z,85.000000
2022-08-22T15:10:25.946Z,85.666667
2022-08-22T15:15:49.237Z,86.000000
2022-08-22T15:20:27.701Z,86.250000
2022-08-22T15:26:38.132Z,86.000000
2022-08-22T15:30:26.975Z,87.000000
2022-08-22T15:37:09.944Z,86.000000
2022-08-22T15:47:27.782Z,87.000000
2022-08-22T15:50:37.919Z,86.333333
2022-08-22T15:56:49.867Z,87.000000
2022-08-22T16:00:28.039Z,86.000000
2022-08-22T16:05:54.997Z,86.166667
2022-08-22T16:10:38.035Z,86.000000
2022-08-22T16:15:25.885Z,86.000000
2022-08-22T16:21:02.269Z,86.000000
2022-08-22T16:25:25.913Z,87.000000
2022-08-22T16:30:25.993Z,87.000000
2022-08-22T16:35:25.958Z,87.000000
2022-08-22T16:40:27.195Z,87.153846
2022-08-22T16:45:25.967Z,88.000000
2022-08-22T16:50:37.918Z,88.600000
2022-08-22T16:55:37.964Z,89.000000
2022-08-22T17:00:38.062Z,88.000000
2022-08-22T17:05:49.891Z,88.000000
2022-08-22T17:10:26.645Z,88.181818
2022-08-22T17:15:25.995Z,89.000000
2022-08-22T17:21:02.022Z,89.833333
2022-08-22T17:25:39.410Z,90.222222
2022-08-22T17:30:38.071Z,91.000000
2022-08-22T17:35:25.976Z,91.000000
2022-08-22T17:40:26.393Z,91.888889
2022-08-22T17:45:38.387Z,92.000000
2022-08-22T17:50:26.089Z,92.833333
2022-08-22T17:59:49.977Z,93.000000
2022-08-22T18:05:25.932Z,92.000000
2022-08-22T18:10:38.057Z,92.000000
2022-08-22T18:15:25.937Z,92.600000
2022-08-22T18:20:26.113Z,93.230769
2022-08-22T18:25:26.140Z,94.000000
2022-08-22T18:30:26.051Z,94.000000
2022-08-22T18:35:26.148Z,94.250000
2022-08-22T18:40:50.585Z,95.000000
2022-08-22T18:45:25.873Z,95.000000
2022-08-22T18:50:25.926Z,95.000000
2022-08-22T18:55:25.917Z,95.000000
2022-08-22T19:00:38.078Z,94.916667
2022-08-22T19:05:26.031Z,94.000000
2022-08-22T19:10:26.097Z,94.000000
2022-08-22T19:15:25.956Z,94.000000
2022-08-22T19:20:26.161Z,93.250000
2022-08-22T19:25:26.102Z,93.000000
2022-08-22T19:30:26.025Z,93.000000
2022-08-22T19:35:26.572Z,93.000000
2022-08-22T19:40:26.430Z,93.000000
2022-08-22T19:45:38.078Z,93.000000
2022-08-22T19:50:26.109Z,93.000000
2022-08-22T19:55:26.080Z,93.000000
2022-08-22T20:00:25.974Z,93.000000
2022-08-22T20:05:26.224Z,93.000000
2022-08-22T20:10:26.247Z,93.000000
2022-08-22T20:15:26.050Z,93.000000
2022-08-22T20:20:38.094Z,92.375000
2022-08-22T20:25:42.383Z,92.000000
2022-08-22T20:30:38.022Z,92.000000
2022-08-22T20:35:37.982Z,92.000000
2022-08-22T20:40:57.042Z,92.000000
2022-08-22T20:45:26.060Z,92.000000
2022-08-22T20:50:26.460Z,92.000000
2022-08-22T20:55:30.520Z,92.000000
2022-08-22T21:00:26.090Z,92.000000
2022-08-22T21:05:26.013Z,92.000000
2022-08-22T21:10:38.167Z,92.000000
2022-08-22T21:15:25.975Z,92.000000
2022-08-22T21:20:26.018Z,92.000000
2022-08-22T21:25:26.614Z,91.300000
2022-08-22T21:30:26.153Z,91.000000
2022-08-22T21:35:25.897Z,91.800000
2022-08-22T21:40:26.554Z,91.909091
2022-08-22T21:45:26.006Z,91.900000
2022-08-22T21:50:26.079Z,92.000000
2022-08-22T21:55:26.296Z,92.000000
2022-08-22T22:00:25.995Z,92.083333
2022-08-22T22:05:38.021Z,92.000000
2022-08-22T22:10:38.040Z,92.000000
2022-08-22T22:15:26.146Z,91.666667
2022-08-22T22:20:25.987Z,91.000000
2022-08-22T22:25:39.953Z,91.000000
2022-08-22T22:30:26.654Z,91.083333
2022-08-22T22:35:25.974Z,92.000000
2022-08-22T22:40:26.039Z,92.000000
2022-08-22T22:45:38.022Z,92.000000
2022-08-22T22:50:26.045Z,92.000000
2022-08-22T22:55:26.071Z,92.375000
2022-08-22T23:00:29.124Z,93.000000
2022-08-22T23:05:26.168Z,93.090909
2022-08-22T23:10:25.983Z,93.250000
2022-08-22T23:15:26.037Z,93.000000
2022-08-22T23:20:26.548Z,93.000000
2022-08-22T23:25:26.949Z,94.000000
2022-08-22T23:30:26.118Z,94.000000
2022-08-22T23:35:50.021Z,94.000000
2022-08-22T23:40:26.340Z,94.000000
2022-08-22T23:45:26.167Z,94.000000
2022-08-22T23:50:25.965Z,94.000000
2022-08-22T23:55:26.627Z,94.000000
